Time;durP1;ratioP1;P1;durP2;ratioP2;P2;SDS_P1;SDS_P2;PMS_P1;PMS_P2;Temp;Humidity;BMP_temperature;BMP_pressure;BME280_temperature;BME280_humidity;BME280_pressure;Samples;Min_cycle;Max_cycle;Signal;HPM_P1;HPM_P2
2020/12/01 00:01:04;;;;;;;3.17;2.87;;;20.10;46.80;;;;;;5048913;28;20481;-68
2020/12/01 00:03:30;;;;;;;3.47;3.17;;;20.10;46.70;;;;;;5042214;28;20543;-68
2020/12/01 00:05:57;;;;;;;3.30;3.10;;;20.10;46.70;;;;;;5046260;28;20995;-68
2020/12/01 00:08:23;;;;;;;3.60;3.20;;;20.10;46.70;;;;;;5048955;28;20490;-68
2020/12/01 00:10:49;;;;;;;2.90;2.70;;;20.10;46.70;;;;;;5046973;28;20539;-70
2020/12/01 00:13:15;;;;;;;3.20;2.90;;;20.20;46.80;;;;;;5037080;28;21023;-69
2020/12/01 00:15:42;;;;;;;2.37;2.27;;;20.20;46.80;;;;;;5013659;28;20599;-69
2020/12/01 00:18:08;;;;;;;2.43;2.33;;;20.20;46.80;;;;;;5058679;28;20501;-69
2020/12/01 00:20:34;;;;;;;3.63;3.33;;;20.20;46.80;;;;;;5057362;28;20552;-68
2020/12/01 00:23:00;;;;;;;3.17;2.73;;;20.20;46.80;;;;;;5066712;28;20895;-68
2020/12/01 00:25:26;;;;;;;3.57;3.27;;;20.20;46.80;;;;;;5067137;28;20477;-68
2020/12/01 00:27:52;;;;;;;3.20;3.00;;;20.10;46.70;;;;;;5047495;28;20489;-67
2020/12/01 00:30:20;;;;;;;2.57;2.43;;;20.10;46.70;;;;;;5045768;28;20506;-69
2020/12/01 00:32:47;;;;;;;2.83;2.63;;;20.10;46.70;;;;;;5071697;28;20481;-69
2020/12/01 00:35:13;;;;;;;3.83;3.27;;;20.10;46.70;;;;;;5050690;28;20480;-70
2020/12/01 00:37:39;;;;;;;3.37;3.07;;;20.10;46.70;;;;;;5047499;28;20568;-70
2020/12/01 00:40:06;;;;;;;4.70;3.03;;;20.10;46.70;;;;;;5040073;28;21228;-71
2020/12/01 00:42:32;;;;;;;3.67;2.90;;;20.10;46.70;;;;;;5049703;28;20486;-69
2020/12/01 00:44:58;;;;;;;3.20;3.00;;;20.10;46.70;;;;;;5038766;28;20494;-69
2020/12/01 00:47:24;;;;;;;3.70;3.40;;;20.10;46.70;;;;;;5044527;28;21014;-70
2020/12/01 00:49:51;;;;;;;3.83;3.13;;;20.00;46.60;;;;;;5051770;28;20544;-72
2020/12/01 00:52:17;;;;;;;2.73;2.63;;;20.00;46.60;;;;;;5040684;28;20485;-69
2020/12/01 00:54:43;;;;;;;3.40;3.13;;;20.10;46.70;;;;;;5055105;28;20950;-68
2020/12/01 00:57:09;;;;;;;2.80;2.60;;;20.10;46.70;;;;;;5052933;28;20474;-69
2020/12/01 00:59:35;;;;;;;3.10;2.90;;;20.10;46.70;;;;;;5032766;28;20482;-69
2020/12/01 01:02:01;;;;;;;5.93;2.90;;;20.10;46.70;;;;;;5048218;28;21508;-69
2020/12/01 01:04:27;;;;;;;2.30;2.10;;;20.10;46.70;;;;;;5039162;28;20893;-68
2020/12/01 01:06:54;;;;;;;3.03;2.73;;;20.10;46.70;;;;;;5050535;28;20486;-69
2020/12/01 01:09:20;;;;;;;3.47;3.20;;;20.10;46.70;;;;;;5051659;28;20490;-70
2020/12/01 01:11:46;;;;;;;3.53;3.23;;;20.10;46.70;;;;;;5054362;28;20894;-68
2020/12/01 01:14:12;;;;;;;3.03;2.83;;;20.00;46.60;;;;;;5051485;28;20743;-68
2020/12/01 01:16:41;;;;;;;3.17;2.97;;;20.10;46.80;;;;;;5052879;28;20524;-69
2020/12/01 01:19:07;;;;;;;3.07;2.87;;;20.00;46.60;;;;;;5050362;28;20958;-68
2020/12/01 01:21:39;;;;;;;2.70;2.60;;;20.00;46.60;;;;;;5074403;28;20485;-68
2020/12/01 01:24:05;;;;;;;4.50;4.10;;;20.00;46.60;;;;;;5060173;28;20485;-69
2020/12/01 01:26:32;;;;;;;4.20;3.80;;;20.00;46.60;;;;;;5062886;28;20510;-68
2020/12/01 01:28:58;;;;;;;3.40;3.20;;;20.00;46.60;;;;;;5044720;28;20470;-70
2020/12/01 01:31:24;;;;;;;3.03;2.83;;;20.00;46.60;;;;;;5069010;28;20980;-70
2020/12/01 01:33:50;;;;;;;2.87;2.67;;;20.00;46.60;;;;;;5061534;28;20473;-70
2020/12/01 01:36:16;;;;;;;3.13;2.93;;;20.00;46.60;;;;;;5008910;28;20537;-71
2020/12/01 01:38:42;;;;;;;3.57;3.27;;;20.00;46.60;;;;;;5084601;28;20472;-70
2020/12/01 01:41:09;;;;;;;3.70;3.37;;;20.00;46.60;;;;;;5060176;28;20888;-69
2020/12/01 01:43:35;;;;;;;2.97;2.87;;;20.00;46.60;;;;;;5065350;28;20477;-70
2020/12/01 01:46:01;;;;;;;3.50;3.20;;;20.10;46.70;;;;;;5087545;28;20469;-69
2020/12/01 01:48:28;;;;;;;2.87;2.73;;;20.10;46.70;;;;;;5076972;28;20487;-69
2020/12/01 01:50:57;;;;;;;3.70;3.40;;;20.10;46.80;;;;;;5075169;28;20550;-70
2020/12/01 01:53:24;;;;;;;2.13;2.03;;;20.10;46.70;;;;;;5051243;28;20478;-69
2020/12/01 01:55:51;;;;;;;2.67;2.50;;;20.10;46.70;;;;;;5074918;28;21098;-70
2020/12/01 01:58:18;;;;;;;3.07;2.90;;;20.10;46.70;;;;;;5073484;28;20527;-69
2020/12/01 02:00:56;;;;;;;3.00;2.90;;;20.00;46.60;;;;;;5076319;28;20543;-68
2020/12/01 02:03:30;;;;;;;2.80;2.63;;;20.00;46.60;;;;;;5068941;28;20485;-69
2020/12/01 02:05:57;;;;;;;2.87;2.77;;;20.00;46.60;;;;;;5069822;28;20481;-69
2020/12/01 02:08:23;;;;;;;3.00;2.80;;;20.00;46.70;;;;;;5067320;28;20481;-69
2020/12/01 02:10:49;;;;;;;3.60;3.27;;;19.90;46.60;;;;;;5069955;28;20546;-69
2020/12/01 02:13:15;;;;;;;3.20;3.00;;;19.90;47.40;;;;;;5066474;28;20485;-69
2020/12/01 02:15:42;;;;;;;2.70;2.60;;;19.90;46.70;;;;;;5067267;28;21010;-69
2020/12/01 02:18:08;;;;;;;3.30;3.03;;;19.90;46.70;;;;;;5071342;28;20489;-68
2020/12/01 02:20:36;;;;;;;3.43;3.23;;;19.90;46.70;;;;;;5041175;28;20590;-67
2020/12/01 02:23:02;;;;;;;3.10;3.00;;;19.90;46.70;;;;;;5043027;28;21099;-69
2020/12/01 02:25:28;;;;;;;2.90;2.70;;;19.90;46.70;;;;;;5038072;28;20494;-67
2020/12/01 02:27:57;;;;;;;3.93;3.63;;;19.90;46.80;;;;;;5018919;28;20567;-68
2020/12/01 02:30:23;;;;;;;3.10;2.90;;;19.90;46.80;;;;;;5023561;28;21015;-69
2020/12/01 02:32:49;;;;;;;3.20;3.00;;;19.90;46.70;;;;;;5035439;28;20601;-69
2020/12/01 02:35:16;;;;;;;3.20;3.00;;;19.90;46.70;;;;;;5051491;28;20973;-70
2020/12/01 02:37:43;;;;;;;3.00;2.90;;;19.90;46.80;;;;;;5040419;28;20517;-68
2020/12/01 02:40:09;;;;;;;2.83;2.63;;;19.90;46.60;;;;;;5035844;28;20477;-68
2020/12/01 02:42:35;;;;;;;2.80;2.60;;;19.90;46.80;;;;;;5026642;28;20855;-69
2020/12/01 02:45:02;;;;;;;4.73;4.40;;;19.90;46.80;;;;;;5042351;28;20482;-69
2020/12/01 02:47:28;;;;;;;3.20;3.00;;;19.90;46.80;;;;;;5046944;28;20490;-71
2020/12/01 02:49:54;;;;;;;3.20;3.00;;;19.90;46.80;;;;;;5033811;28;22181;-71
2020/12/01 02:52:21;;;;;;;2.47;2.37;;;19.90;46.90;;;;;;5038108;28;20532;-70
2020/12/01 02:54:47;;;;;;;4.90;4.50;;;19.90;46.80;;;;;;5047812;28;20489;-71
2020/12/01 02:57:13;;;;;;;2.57;2.47;;;19.90;46.90;;;;;;5051311;28;20556;-69
2020/12/01 02:59:39;;;;;;;3.60;3.33;;;19.90;46.90;;;;;;5037822;28;20598;-68
2020/12/01 03:02:06;;;;;;;2.73;2.53;;;19.90;46.80;;;;;;5016430;28;20482;-70
2020/12/01 03:04:32;;;;;;;3.33;3.13;;;19.90;46.80;;;;;;5010849;28;22939;-69
2020/12/01 03:06:58;;;;;;;3.33;3.13;;;19.90;46.80;;;;;;5046872;28;21552;-70
2020/12/01 03:09:24;;;;;;;3.07;2.87;;;19.90;46.80;;;;;;5050664;28;20481;-69
2020/12/01 03:11:50;;;;;;;3.20;2.90;;;19.80;46.70;;;;;;5024298;28;20501;-69
2020/12/01 03:14:17;;;;;;;3.07;2.80;;;19.90;46.80;;;;;;5046349;28;20508;-69
2020/12/01 03:16:43;;;;;;;2.67;2.57;;;19.90;46.80;;;;;;5063566;28;20478;-70
2020/12/01 03:19:10;;;;;;;3.53;3.33;;;19.90;46.80;;;;;;5012072;28;20529;-68
2020/12/01 03:21:36;;;;;;;2.60;2.50;;;19.80;46.70;;;;;;5029376;28;20478;-69
2020/12/01 03:24:02;;;;;;;3.13;2.93;;;19.90;46.90;;;;;;5047143;28;20843;-68
2020/12/01 03:26:29;;;;;;;2.57;2.43;;;19.90;46.80;;;;;;5042460;28;20486;-71
2020/12/01 03:28:55;;;;;;;2.60;2.40;;;19.90;46.80;;;;;;5040676;28;20520;-70
2020/12/01 03:31:21;;;;;;;3.00;2.80;;;19.90;46.90;;;;;;5042861;28;20543;-69
2020/12/01 03:33:47;;;;;;;3.50;3.20;;;19.80;46.70;;;;;;5036410;28;20540;-69
2020/12/01 03:36:14;;;;;;;2.63;2.47;;;19.90;46.80;;;;;;5043710;28;20551;-69
2020/12/01 03:38:40;;;;;;;3.60;3.30;;;19.90;46.80;;;;;;5040192;28;20565;-70
2020/12/01 03:41:06;;;;;;;2.10;2.00;;;19.90;46.60;;;;;;5005804;28;20490;-70
2020/12/01 03:43:33;;;;;;;2.73;2.63;;;19.90;46.50;;;;;;5036912;28;20935;-70
2020/12/01 03:45:59;;;;;;;2.70;2.60;;;19.90;46.60;;;;;;5042737;28;20479;-70
2020/12/01 03:48:25;;;;;;;2.77;2.57;;;19.90;46.70;;;;;;5049581;28;21013;-69
2020/12/01 03:50:51;;;;;;;2.97;2.77;;;19.90;46.80;;;;;;5040065;28;20515;-69
2020/12/01 03:53:18;;;;;;;2.60;2.50;;;19.80;46.70;;;;;;5052441;28;20621;-69
2020/12/01 03:55:44;;;;;;;3.33;3.13;;;19.90;46.70;;;;;;5048691;28;20486;-68
2020/12/01 03:58:10;;;;;;;3.10;2.90;;;19.90;46.70;;;;;;5050352;28;20997;-67
2020/12/01 04:00:36;;;;;;;3.60;3.30;;;19.90;46.60;;;;;;5052189;28;20494;-68
2020/12/01 04:03:02;;;;;;;2.30;2.20;;;19.90;46.50;;;;;;5051696;28;20989;-68
2020/12/01 04:05:28;;;;;;;2.70;2.60;;;20.00;46.60;;;;;;5052572;28;20465;-70
2020/12/01 04:07:55;;;;;;;2.67;2.57;;;20.00;46.60;;;;;;5050538;28;20485;-69
2020/12/01 04:10:23;;;;;;;2.60;2.50;;;20.00;46.60;;;;;;5044673;28;20547;-69
2020/12/01 04:12:49;;;;;;;2.30;2.10;;;19.90;46.60;;;;;;5042015;28;20478;-68
2020/12/01 04:15:16;;;;;;;2.50;2.30;;;19.90;46.50;;;;;;5039420;28;20481;-69
2020/12/01 04:17:42;;;;;;;2.57;2.37;;;19.90;46.60;;;;;;5047062;28;20481;-69
2020/12/01 04:20:08;;;;;;;2.53;2.40;;;19.90;46.50;;;;;;5053624;28;20962;-70
2020/12/01 04:22:34;;;;;;;2.63;2.53;;;19.80;46.40;;;;;;5058425;28;21009;-70
2020/12/01 04:25:00;;;;;;;3.10;2.90;;;19.80;46.50;;;;;;5076813;28;20529;-70
2020/12/01 04:27:27;;;;;;;2.63;2.43;;;19.80;46.40;;;;;;5067652;28;20481;-69
2020/12/01 04:29:53;;;;;;;2.53;2.40;;;19.90;46.60;;;;;;5038626;28;20490;-69
2020/12/01 04:32:19;;;;;;;2.80;2.60;;;19.90;46.50;;;;;;5062922;28;20521;-71
2020/12/01 04:34:45;;;;;;;2.23;2.13;;;19.90;46.50;;;;;;5080687;28;20529;-70
2020/12/01 04:37:12;;;;;;;2.13;2.03;;;19.90;46.90;;;;;;5060810;28;20481;-69
2020/12/01 04:39:38;;;;;;;2.23;2.13;;;19.90;46.60;;;;;;5050462;28;20526;-68
2020/12/01 04:42:04;;;;;;;2.60;2.50;;;19.90;46.50;;;;;;5064645;28;21512;-68
2020/12/01 04:44:34;;;;;;;2.70;2.40;;;19.90;46.50;;;;;;5077495;28;20485;-71
2020/12/01 04:47:00;;;;;;;2.50;2.30;;;19.90;46.50;;;;;;5063038;28;20481;-69
2020/12/01 04:49:28;;;;;;;2.10;2.00;;;19.90;46.50;;;;;;5052647;28;20555;-69
2020/12/01 04:52:14;;;;;;;1.73;1.63;;;19.90;46.50;;;;;;5058139;28;20482;-69
2020/12/01 04:54:54;;;;;;;2.23;2.13;;;19.90;46.60;;;;;;5076096;28;20514;-69
2020/12/01 04:57:30;;;;;;;2.00;1.90;;;19.90;46.60;;;;;;5050323;28;21084;-68
2020/12/01 05:00:17;;;;;;;2.20;2.10;;;19.90;46.50;;;;;;5033330;28;20476;-69
2020/12/01 05:03:08;;;;;;;2.87;2.67;;;19.90;46.60;;;;;;5041539;28;20481;-69
2020/12/01 05:05:50;;;;;;;2.07;1.97;;;19.90;46.60;;;;;;5056534;28;20920;-69
2020/12/01 05:08:32;;;;;;;1.90;1.80;;;19.90;46.80;;;;;;5050752;28;20486;-69
2020/12/01 05:11:00;;;;;;;2.30;2.20;;;19.80;46.60;;;;;;5041372;28;20561;-68
2020/12/01 05:13:28;;;;;;;2.10;2.00;;;19.80;47.50;;;;;;5029751;28;20494;-69
2020/12/01 05:15:55;;;;;;;1.67;1.57;;;19.80;46.80;;;;;;5057735;28;20469;-68
2020/12/01 05:18:22;;;;;;;2.20;2.10;;;19.80;46.80;;;;;;5064848;28;20529;-68
2020/12/01 05:20:49;;;;;;;2.00;1.77;;;19.80;46.50;;;;;;5064051;28;20518;-68
2020/12/01 05:23:17;;;;;;;2.30;2.20;;;19.80;47.50;;;;;;5088320;28;21040;-70
2020/12/01 05:25:43;;;;;;;1.97;1.80;;;19.80;46.80;;;;;;5077704;28;20841;-68
2020/12/01 05:28:11;;;;;;;1.90;1.80;;;19.80;46.70;;;;;;5033925;28;20577;-69
2020/12/01 05:30:37;;;;;;;1.97;1.87;;;19.80;46.50;;;;;;5060855;28;20484;-71
2020/12/01 05:33:16;;;;;;;1.80;1.70;;;19.90;46.70;;;;;;5063160;28;20560;-69
2020/12/01 05:35:42;;;;;;;1.73;1.63;;;19.80;46.40;;;;;;5054071;28;20476;-69
2020/12/01 05:38:17;;;;;;;2.80;2.60;;;19.80;46.50;;;;;;5037562;28;20514;-68
2020/12/01 05:40:48;;;;;;;1.83;1.73;;;19.80;46.40;;;;;;5063481;28;20908;-69
2020/12/01 05:43:23;;;;;;;2.10;2.00;;;19.80;46.50;;;;;;5054226;28;20472;-68
2020/12/01 05:45:49;;;;;;;1.93;1.83;;;19.80;47.30;;;;;;5058108;28;20548;-69
2020/12/01 05:48:34;;;;;;;1.87;1.73;;;19.80;46.50;;;;;;5069037;28;20492;-70
2020/12/01 05:51:02;;;;;;;1.53;1.53;;;19.80;46.80;;;;;;5057187;28;20905;-69
2020/12/01 05:53:28;;;;;;;2.00;1.90;;;19.70;46.80;;;;;;5071770;28;21074;-69
2020/12/01 05:56:12;;;;;;;2.27;2.17;;;19.70;46.70;;;;;;5070328;28;20550;-69
2020/12/01 05:58:39;;;;;;;2.13;2.03;;;19.70;46.80;;;;;;5067782;28;20582;-69
2020/12/01 06:01:07;;;;;;;4.13;2.13;;;19.70;46.40;;;;;;5073982;28;20997;-71
2020/12/01 06:03:47;;;;;;;2.50;2.27;;;19.80;46.40;;;;;;5061013;28;20571;-68
2020/12/01 06:06:13;;;;;;;2.30;2.20;;;19.80;46.40;;;;;;5064931;28;20472;-68
2020/12/01 06:08:43;;;;;;;2.13;2.03;;;19.80;46.50;;;;;;5079407;28;20920;-70
2020/12/01 06:11:14;;;;;;;2.13;2.03;;;19.80;46.70;;;;;;5063035;28;20542;-70
2020/12/01 06:13:44;;;;;;;3.83;2.10;;;19.80;46.40;;;;;;5063839;28;21491;-71
2020/12/01 06:16:25;;;;;;;2.20;2.10;;;19.90;46.30;;;;;;5068351;28;20482;-69
2020/12/01 06:18:56;;;;;;;2.50;2.40;;;19.90;46.20;;;;;;5068508;28;20492;-69
2020/12/01 06:21:33;;;;;;;2.50;2.33;;;19.90;46.20;;;;;;5081091;28;20960;-70
2020/12/01 06:24:29;;;;;;;2.37;2.27;;;19.90;46.10;;;;;;5036929;28;20515;-70
2020/12/01 06:27:27;;;;;;;2.57;2.47;;;19.90;46.20;;;;;;4999806;28;20996;-71
2020/12/01 06:30:19;;;;;;;2.83;2.63;;;19.90;46.30;;;;;;5039251;28;21181;-71
2020/12/01 06:33:32;;;;;;;2.87;2.67;;;19.90;45.90;;;;;;5048034;28;20566;-69
2020/12/01 06:36:24;;;;;;;2.40;2.20;;;19.90;46.10;;;;;;5022216;28;20478;-70
2020/12/01 06:38:54;;;;;;;2.63;2.43;;;19.90;46.20;;;;;;5025168;28;20550;-69
2020/12/01 06:41:21;;;;;;;2.47;2.30;;;19.80;46.20;;;;;;5011116;28;20950;-72
2020/12/01 06:43:49;;;;;;;2.43;2.23;;;19.80;46.00;;;;;;5052673;28;20600;-70
2020/12/01 06:46:26;;;;;;;1.83;1.73;;;19.70;45.60;;;;;;5050042;28;21165;-70
2020/12/01 06:48:52;;;;;;;2.30;2.20;;;19.80;45.90;;;;;;5031142;28;21624;-69
2020/12/01 06:51:19;;;;;;;2.70;2.50;;;19.80;45.80;;;;;;5048798;28;20520;-68
2020/12/01 06:53:45;;;;;;;2.33;2.23;;;19.80;45.70;;;;;;5045913;28;20536;-70
2020/12/01 06:56:17;;;;;;;2.67;2.47;;;19.80;45.80;;;;;;5048399;28;20575;-71
2020/12/01 06:58:43;;;;;;;1.77;1.67;;;19.80;46.20;;;;;;5063932;28;20482;-69
2020/12/01 07:01:13;;;;;;;2.53;2.37;;;19.90;46.30;;;;;;5055005;28;20523;-69
2020/12/01 07:03:39;;;;;;;2.00;1.90;;;19.80;46.30;;;;;;5043680;28;20489;-69
2020/12/01 07:06:12;;;;;;;1.70;1.60;;;19.90;46.30;;;;;;5052372;28;20569;-68
2020/12/01 07:08:39;;;;;;;1.70;1.60;;;19.90;46.50;;;;;;5044842;28;20513;-71
2020/12/01 07:11:08;;;;;;;2.50;1.83;;;19.90;46.40;;;;;;5047588;28;20899;-70
2020/12/01 07:13:40;;;;;;;2.30;2.20;;;19.90;46.50;;;;;;5015790;28;21130;-71
2020/12/01 07:16:08;;;;;;;3.20;2.10;;;19.90;46.50;;;;;;4998815;28;20517;-69
2020/12/01 07:18:35;;;;;;;1.93;1.83;;;19.80;46.40;;;;;;5047434;28;20477;-71
2020/12/01 07:21:16;;;;;;;2.10;2.00;;;19.80;46.50;;;;;;5047627;28;20479;-70
2020/12/01 07:23:48;;;;;;;2.10;2.00;;;19.80;47.50;;;;;;5037332;28;21879;-67
2020/12/01 07:26:31;;;;;;;1.60;1.50;;;19.80;46.70;;;;;;5029963;28;20462;-68
2020/12/01 07:29:19;;;;;;;2.23;2.03;;;19.90;46.60;;;;;;5065063;28;21325;-69
2020/12/01 07:31:45;;;;;;;2.03;2.00;;;19.90;46.50;;;;;;5035472;28;20557;-69
2020/12/01 07:34:23;;;;;;;1.97;1.87;;;19.90;46.50;;;;;;5074829;28;21238;-69
2020/12/01 07:36:51;;;;;;;1.93;1.83;;;19.90;46.50;;;;;;5050606;28;20478;-69
2020/12/01 07:39:20;;;;;;;2.00;1.90;;;19.90;46.50;;;;;;5060393;28;20525;-69
2020/12/01 07:41:48;;;;;;;1.63;1.53;;;19.90;46.60;;;;;;5035099;28;20574;-67
2020/12/01 07:44:17;;;;;;;2.03;1.90;;;19.90;46.50;;;;;;5053041;28;20478;-69
2020/12/01 07:46:51;;;;;;;3.10;2.90;;;19.90;46.80;;;;;;5045786;28;21018;-69
2020/12/01 07:49:17;;;;;;;1.63;1.53;;;19.90;46.60;;;;;;5072383;28;20484;-69
2020/12/01 07:51:43;;;;;;;1.80;1.70;;;19.90;46.80;;;;;;5066790;28;20484;-69
2020/12/01 07:54:10;;;;;;;1.90;1.80;;;19.90;46.90;;;;;;5059718;28;20994;-71
2020/12/01 07:56:38;;;;;;;2.20;2.10;;;19.90;46.90;;;;;;5074236;28;20496;-69
2020/12/01 07:59:10;;;;;;;1.23;1.23;;;19.90;46.70;;;;;;5067458;28;21118;-67
2020/12/01 08:01:36;;;;;;;1.60;1.60;;;20.00;46.60;;;;;;5058540;28;20627;-70
2020/12/01 08:04:06;;;;;;;1.53;1.50;;;20.10;46.70;;;;;;5048845;28;20544;-69
2020/12/01 08:06:32;;;;;;;1.90;1.80;;;20.00;46.60;;;;;;5002221;28;20498;-69
2020/12/01 08:08:58;;;;;;;1.80;1.70;;;20.00;46.60;;;;;;5043819;28;20493;-70
2020/12/01 08:11:25;;;;;;;3.07;1.90;;;19.90;46.70;;;;;;5037234;28;20486;-71
2020/12/01 08:13:51;;;;;;;2.13;2.03;;;19.90;46.90;;;;;;5027570;28;20603;-70
2020/12/01 08:16:19;;;;;;;2.13;1.63;;;19.90;47.00;;;;;;5044895;28;20478;-70
2020/12/01 08:18:45;;;;;;;2.30;2.20;;;19.90;47.00;;;;;;5035498;28;20490;-72
2020/12/01 08:21:11;;;;;;;2.13;2.03;;;19.90;47.10;;;;;;5024472;28;20516;-72
2020/12/01 08:23:37;;;;;;;1.93;1.83;;;19.90;47.10;;;;;;5020235;28;20502;-69
2020/12/01 08:26:06;;;;;;;1.57;1.47;;;20.00;47.10;;;;;;5015713;28;20520;-68
2020/12/01 08:28:36;;;;;;;1.77;1.67;;;20.00;47.10;;;;;;5031774;28;20489;-70
2020/12/01 08:31:05;;;;;;;2.50;1.90;;;20.00;47.10;;;;;;5069709;28;21156;-72
2020/12/01 08:33:57;;;;;;;2.10;2.00;;;20.10;48.00;;;;;;5042160;28;20518;-69
2020/12/01 08:36:28;;;;;;;1.43;1.43;;;20.10;47.50;;;;;;5053884;28;20491;-71
2020/12/01 08:39:08;;;;;;;2.70;1.60;;;20.00;47.30;;;;;;5043995;28;20547;-71
2020/12/01 08:41:41;;;;;;;1.63;1.53;;;19.90;47.40;;;;;;5043969;28;20554;-70
2020/12/01 08:44:10;;;;;;;2.10;2.03;;;19.90;47.60;;;;;;5049992;28;20493;-69
2020/12/01 08:46:40;;;;;;;2.20;2.10;;;19.80;47.60;;;;;;5067910;28;20535;-69
2020/12/01 08:49:23;;;;;;;2.07;1.97;;;19.80;47.80;;;;;;5042569;28;20496;-68
2020/12/01 08:51:51;;;;;;;1.63;1.53;;;19.80;47.90;;;;;;5049240;28;21007;-69
2020/12/01 08:54:19;;;;;;;1.53;1.53;;;19.70;47.80;;;;;;5048023;28;20465;-68
2020/12/01 08:57:13;;;;;;;1.83;1.73;;;19.80;47.70;;;;;;5035649;28;21132;-72
2020/12/01 08:59:40;;;;;;;1.63;1.53;;;19.80;47.80;;;;;;5036696;28;20470;-69
2020/12/01 09:02:08;;;;;;;2.30;2.10;;;19.80;47.70;;;;;;5050436;28;20548;-72
2020/12/01 09:04:35;;;;;;;1.60;1.60;;;19.80;47.80;;;;;;5008255;28;20539;-69
2020/12/01 09:07:22;;;;;;;1.70;1.60;;;19.80;47.70;;;;;;5022506;28;20490;-68
2020/12/01 09:09:49;;;;;;;2.47;2.37;;;19.80;47.60;;;;;;5010860;28;20958;-68
2020/12/01 09:12:24;;;;;;;1.70;1.60;;;19.80;47.60;;;;;;5010343;28;20491;-69
2020/12/01 09:15:06;;;;;;;1.90;1.80;;;19.80;47.60;;;;;;5023136;28;20547;-68
2020/12/01 09:17:42;;;;;;;2.00;1.90;;;19.80;47.70;;;;;;5036943;28;20516;-68
2020/12/01 09:20:20;;;;;;;1.47;1.47;;;19.80;47.80;;;;;;5047618;28;20481;-68
2020/12/01 09:22:46;;;;;;;1.60;1.60;;;19.80;47.70;;;;;;5031418;28;20485;-69
2020/12/01 09:25:15;;;;;;;1.73;1.57;;;19.90;47.60;;;;;;5055366;28;20503;-68
2020/12/01 09:27:42;;;;;;;1.60;1.50;;;19.90;47.50;;;;;;4997983;28;21665;-69
2020/12/01 09:30:16;;;;;;;2.80;2.60;;;20.00;47.30;;;;;;5030752;28;20482;-70
2020/12/01 09:32:42;;;;;;;2.23;2.13;;;20.10;47.20;;;;;;5032213;27;20490;-69
2020/12/01 09:35:08;;;;;;;2.00;1.90;;;20.20;47.10;;;;;;5034038;28;20913;-67
2020/12/01 09:37:35;;;;;;;2.00;1.90;;;20.10;46.90;;;;;;5058532;28;20473;-68
2020/12/01 09:40:01;;;;;;;2.27;2.17;;;20.20;47.00;;;;;;5045702;28;20486;-69
2020/12/01 09:42:30;;;;;;;2.00;1.90;;;20.20;47.00;;;;;;5025810;28;20499;-69
2020/12/01 09:47:45;;;;;;;1.90;1.80;;;20.30;46.90;;;;;;5024542;28;21242;-68
2020/12/01 09:50:14;;;;;;;1.73;1.70;;;20.30;46.90;;;;;;5042631;28;21013;-70
2020/12/01 09:55:47;;;;;;;1.47;1.47;;;20.40;46.90;;;;;;5012734;28;20514;-69
2020/12/01 09:58:26;;;;;;;2.30;2.20;;;20.40;46.90;;;;;;5032147;28;20466;-69
2020/12/01 10:02:47;;;;;;;1.53;1.53;;;20.40;46.90;;;;;;5065291;28;20550;-70
2020/12/01 10:09:27;;;;;;;2.03;1.60;;;20.30;46.90;;;;;;5035909;28;21669;-70
2020/12/01 10:12:19;;;;;;;1.97;1.87;;;20.30;47.00;;;;;;5041456;28;21084;-70
2020/12/01 10:17:47;;;;;;;2.40;2.30;;;20.40;46.90;;;;;;5037937;28;21043;-70
2020/12/01 10:26:00;;;;;;;2.87;2.60;;;20.50;47.00;;;;;;5052731;28;20579;-70
2020/12/01 10:36:38;;;;;;;2.43;2.23;;;20.30;47.90;;;;;;5053669;28;20492;-69
2020/12/01 10:39:05;;;;;;;2.07;1.93;;;20.30;47.30;;;;;;5048476;28;20493;-68
2020/12/01 10:41:32;;;;;;;2.87;2.77;;;20.30;47.30;;;;;;5039502;28;20486;-68
2020/12/01 10:43:58;;;;;;;2.67;2.50;;;20.30;47.30;;;;;;5051866;28;20483;-70
2020/12/01 10:46:24;;;;;;;2.17;1.97;;;20.30;47.20;;;;;;5034113;28;20478;-69
2020/12/01 10:48:50;;;;;;;3.10;2.90;;;20.30;47.20;;;;;;5045262;28;20535;-69
2020/12/01 10:51:17;;;;;;;2.60;2.37;;;20.30;47.30;;;;;;5022851;28;21013;-70
2020/12/01 10:53:43;;;;;;;2.07;1.97;;;20.30;47.30;;;;;;5042778;28;21587;-69
2020/12/01 10:56:09;;;;;;;3.00;2.70;;;20.30;47.30;;;;;;5022139;28;20548;-71
2020/12/01 10:58:36;;;;;;;2.20;2.10;;;20.30;47.30;;;;;;5038392;28;21385;-69
2020/12/01 11:01:02;;;;;;;2.73;2.53;;;20.30;47.30;;;;;;5070076;28;20554;-68
2020/12/01 11:03:28;;;;;;;2.97;2.70;;;20.30;47.40;;;;;;5055383;28;20481;-73
2020/12/01 11:05:54;;;;;;;2.90;2.70;;;20.30;47.20;;;;;;5037346;28;20564;-69
2020/12/01 11:08:20;;;;;;;2.40;2.30;;;20.30;47.30;;;;;;5070452;28;20962;-70
2020/12/01 11:10:46;;;;;;;3.17;2.40;;;20.30;47.40;;;;;;5052254;28;20480;-69
2020/12/01 11:13:12;;;;;;;2.70;2.50;;;20.20;47.40;;;;;;5064780;28;20528;-68
2020/12/01 11:15:39;;;;;;;2.77;2.60;;;20.20;47.40;;;;;;5038365;28;20999;-69
2020/12/01 11:18:06;;;;;;;4.73;2.73;;;20.20;47.50;;;;;;5058581;28;20484;-72
2020/12/01 11:20:32;;;;;;;2.67;2.47;;;20.20;47.60;;;;;;5072729;28;20477;-68
2020/12/01 11:22:59;;;;;;;2.23;2.13;;;20.20;47.60;;;;;;5072760;28;20489;-68
2020/12/01 11:25:25;;;;;;;3.10;3.00;;;20.20;47.60;;;;;;5058940;28;21042;-68
2020/12/01 11:27:51;;;;;;;2.23;2.13;;;20.20;47.60;;;;;;5045165;28;20485;-69
2020/12/01 11:30:18;;;;;;;3.17;2.97;;;20.20;47.60;;;;;;5036328;28;20485;-68
2020/12/01 11:32:45;;;;;;;4.10;2.97;;;20.20;47.60;;;;;;5070606;28;20562;-69
2020/12/01 11:35:12;;;;;;;2.97;2.77;;;20.20;47.60;;;;;;5015109;28;20525;-68
2020/12/01 11:37:38;;;;;;;2.47;2.27;;;20.20;47.70;;;;;;5031262;28;20506;-69
2020/12/01 11:40:04;;;;;;;2.77;2.57;;;20.10;47.60;;;;;;5021474;28;21010;-68
2020/12/01 11:42:30;;;;;;;3.77;2.80;;;20.10;47.60;;;;;;5058216;28;20534;-68
2020/12/01 11:44:56;;;;;;;2.40;2.30;;;20.10;47.60;;;;;;5046933;28;20849;-69
2020/12/01 11:47:22;;;;;;;3.40;2.73;;;20.10;47.60;;;;;;5047271;28;21520;-68
2020/12/01 11:49:49;;;;;;;2.63;2.53;;;20.10;47.70;;;;;;5052439;28;20493;-69
2020/12/01 11:52:15;;;;;;;3.33;3.10;;;20.10;47.70;;;;;;5040389;28;20511;-70
2020/12/01 11:54:41;;;;;;;2.37;2.23;;;20.10;47.70;;;;;;5044822;28;20543;-68
2020/12/01 11:57:07;;;;;;;2.50;2.40;;;20.10;47.70;;;;;;5035815;28;20495;-68
2020/12/01 11:59:33;;;;;;;2.70;2.60;;;20.10;47.70;;;;;;5027505;28;20535;-69
2020/12/01 12:01:59;;;;;;;2.30;2.20;;;20.10;47.70;;;;;;5001791;28;20482;-68
2020/12/01 12:04:25;;;;;;;3.20;2.90;;;20.10;47.70;;;;;;5040861;28;20535;-68
2020/12/01 12:06:52;;;;;;;3.17;2.87;;;20.20;47.80;;;;;;5045892;28;20941;-69
2020/12/01 12:09:19;;;;;;;3.60;3.40;;;20.10;47.70;;;;;;5048714;28;20543;-67
2020/12/01 12:11:45;;;;;;;3.07;2.87;;;20.10;47.80;;;;;;5034641;28;20497;-70
2020/12/01 12:14:11;;;;;;;2.97;2.80;;;20.10;47.80;;;;;;5029733;28;20543;-70
2020/12/01 12:16:37;;;;;;;3.93;3.53;;;20.10;47.80;;;;;;5025328;28;20483;-70
2020/12/01 12:19:03;;;;;;;3.43;3.23;;;20.10;47.90;;;;;;5021964;28;20899;-68
2020/12/01 12:21:29;;;;;;;2.73;2.63;;;20.10;47.80;;;;;;5050318;28;20485;-70
2020/12/01 12:23:56;;;;;;;3.70;3.40;;;20.10;47.90;;;;;;5036317;28;20544;-69
2020/12/01 12:26:22;;;;;;;2.90;2.80;;;20.10;47.90;;;;;;5051458;28;20482;-67
2020/12/01 12:28:48;;;;;;;3.80;3.50;;;20.10;47.90;;;;;;5048212;28;21180;-67
2020/12/01 12:31:16;;;;;;;3.40;3.20;;;20.10;47.90;;;;;;5024888;28;20477;-68
2020/12/01 12:33:42;;;;;;;3.23;3.13;;;20.10;47.90;;;;;;5048516;28;20494;-70
2020/12/01 12:36:08;;;;;;;2.40;2.30;;;20.10;47.90;;;;;;5029232;28;21073;-69
2020/12/01 12:38:35;;;;;;;2.70;2.60;;;20.10;47.90;;;;;;5038998;28;20489;-69
2020/12/01 12:41:01;;;;;;;3.10;2.90;;;20.20;47.90;;;;;;5039884;28;20640;-68
2020/12/01 12:43:28;;;;;;;3.20;3.00;;;20.20;47.60;;;;;;5013779;28;21068;-70
2020/12/01 12:45:54;;;;;;;3.13;2.93;;;20.30;47.60;;;;;;5051774;28;20477;-69
2020/12/01 12:48:21;;;;;;;4.23;3.50;;;20.30;47.40;;;;;;5051717;28;20552;-69
2020/12/01 12:50:47;;;;;;;3.93;3.63;;;20.40;47.30;;;;;;5050951;28;20551;-68
2020/12/01 12:53:13;;;;;;;3.20;2.90;;;20.40;47.20;;;;;;5048101;28;20486;-69
2020/12/01 12:55:39;;;;;;;3.47;3.27;;;20.40;47.00;;;;;;5051496;28;20486;-69
2020/12/01 12:58:06;;;;;;;2.93;2.83;;;20.40;47.10;;;;;;5052250;28;20535;-70
2020/12/01 13:00:32;;;;;;;3.03;2.93;;;20.40;47.10;;;;;;5050269;28;20493;-68
2020/12/01 13:02:58;;;;;;;2.20;2.10;;;20.40;47.20;;;;;;5051387;28;20489;-68
2020/12/01 13:05:24;;;;;;;3.10;2.90;;;20.40;47.30;;;;;;5047216;28;20512;-70
2020/12/01 13:07:51;;;;;;;2.83;2.60;;;20.30;47.30;;;;;;5043634;28;21210;-69
2020/12/01 13:10:17;;;;;;;2.90;2.70;;;20.30;47.60;;;;;;5033606;28;20486;-70
2020/12/01 13:12:43;;;;;;;2.80;2.63;;;20.20;47.60;;;;;;5035373;28;21334;-69
2020/12/01 13:15:10;;;;;;;2.80;2.63;;;20.30;47.80;;;;;;5035792;28;20542;-69
2020/12/01 13:17:36;;;;;;;3.23;2.93;;;20.20;47.80;;;;;;5053827;28;21247;-68
2020/12/01 13:20:03;;;;;;;2.63;2.43;;;20.20;47.90;;;;;;5024747;28;20527;-69
2020/12/01 13:22:29;;;;;;;2.43;2.23;;;20.20;47.90;;;;;;5049243;28;20558;-71
2020/12/01 13:24:55;;;;;;;3.07;2.90;;;20.20;47.90;;;;;;5034458;28;20543;-70